createdAt,value
2017-07-27T00:01:30.762Z,93.30
2017-07-27T00:03:58.425Z,93.42
2017-07-27T00:06:26.025Z,93.47
2017-07-27T00:08:53.664Z,93.25
2017-07-27T00:11:21.317Z,93.15
2017-07-27T00:13:48.941Z,93.02
2017-07-27T00:16:16.568Z,92.64
2017-07-27T00:18:44.244Z,92.29
2017-07-27T00:21:11.875Z,92.81
2017-07-27T00:23:39.508Z,92.81
2017-07-27T00:26:07.158Z,92.61
2017-07-27T00:28:34.787Z,91.83
2017-07-27T00:31:02.397Z,92.03
2017-07-27T00:33:30.075Z,91.83
2017-07-27T00:35:57.687Z,92.74
2017-07-27T00:38:25.690Z,91.75
2017-07-27T00:40:53.560Z,91.77
2017-07-27T00:43:21.618Z,91.83
2017-07-27T00:45:49.391Z,92.72
2017-07-27T00:48:17.361Z,92.65
2017-07-27T00:50:45.149Z,92.55
2017-07-27T00:53:13.091Z,93.09
2017-07-27T00:55:41.157Z,92.94
2017-07-27T00:58:08.954Z,92.41
2017-07-27T01:00:36.804Z,92.75
2017-07-27T01:03:04.661Z,93.16
2017-07-27T01:05:32.347Z,93.70
2017-07-27T01:08:00.196Z,93.77
2017-07-27T01:10:28.373Z,93.68
2017-07-27T01:12:56.226Z,93.69
2017-07-27T01:15:24.102Z,93.68
2017-07-27T01:17:51.961Z,93.70
2017-07-27T01:20:19.636Z,93.64
2017-07-27T01:22:47.496Z,93.48
2017-07-27T01:25:15.561Z,93.62
2017-07-27T01:27:43.279Z,93.89
2017-07-27T01:30:11.171Z,93.49
2017-07-27T01:32:39.178Z,93.46
2017-07-27T01:35:07.029Z,93.44
2017-07-27T01:37:34.896Z,93.50
2017-07-27T01:40:02.917Z,93.14
2017-07-27T01:42:30.852Z,93.10
2017-07-27T01:44:58.535Z,93.28
2017-07-27T01:49:57.588Z,93.30
2017-07-27T01:52:25.387Z,93.60
2017-07-27T01:54:53.121Z,93.56
2017-07-27T01:57:21.126Z,93.81
2017-07-27T01:59:48.996Z,94.15
2017-07-27T02:02:16.845Z,94.18
2017-07-27T02:04:44.789Z,94.17
2017-07-27T02:07:12.778Z,94.08
2017-07-27T02:09:40.663Z,93.63
2017-07-27T02:12:08.535Z,93.66
2017-07-27T02:14:36.374Z,93.74
2017-07-27T02:17:04.124Z,94.11
2017-07-27T02:19:32.091Z,94.32
2017-07-27T02:21:59.792Z,94.25
2017-07-27T02:24:27.648Z,94.37
2017-07-27T02:26:55.692Z,94.26
2017-07-27T02:29:23.381Z,94.41
2017-07-27T02:31:51.101Z,94.40
2017-07-27T02:34:19.128Z,94.35
2017-07-27T02:36:46.985Z,94.15
2017-07-27T02:39:14.678Z,94.21
2017-07-27T02:41:42.694Z,94.18
2017-07-27T02:44:10.394Z,94.25
2017-07-27T02:46:38.059Z,94.26
2017-07-27T02:49:05.740Z,94.36
2017-07-27T02:51:33.785Z,94.57
2017-07-27T02:54:01.501Z,94.64
2017-07-27T02:56:29.497Z,94.59
2017-07-27T02:58:57.389Z,94.55
2017-07-27T03:01:25.008Z,94.43
2017-07-27T03:03:52.684Z,94.33
2017-07-27T03:06:20.291Z,94.21
2017-07-27T03:08:47.899Z,94.33
2017-07-27T03:11:15.606Z,94.03
2017-07-27T03:13:43.244Z,94.00
2017-07-27T03:16:10.904Z,94.16
2017-07-27T03:18:38.582Z,93.93
2017-07-27T03:21:06.228Z,94.22
2017-07-27T03:23:33.843Z,94.04
2017-07-27T03:26:01.516Z,93.96
2017-07-27T03:28:29.135Z,93.71
2017-07-27T03:30:56.765Z,94.00
2017-07-27T03:33:24.418Z,93.70
2017-07-27T03:35:52.036Z,94.23
2017-07-27T03:38:19.652Z,93.74
2017-07-27T03:40:47.292Z,93.47
2017-07-27T03:43:14.916Z,93.30
2017-07-27T03:45:42.531Z,93.58
2017-07-27T03:48:10.181Z,93.29
2017-07-27T03:50:37.853Z,93.39
2017-07-27T03:53:05.452Z,93.43
2017-07-27T03:55:33.101Z,93.27
2017-07-27T03:58:00.727Z,92.87
2017-07-27T04:00:28.342Z,92.38
2017-07-27T04:02:56.019Z,91.36
2017-07-27T04:05:23.647Z,91.02
2017-07-27T04:07:51.246Z,91.17
2017-07-27T04:10:18.910Z,91.68
2017-07-27T04:12:46.541Z,90.73
2017-07-27T04:15:14.155Z,90.58
2017-07-27T04:17:41.821Z,90.76
2017-07-27T04:20:09.444Z,90.92
2017-07-27T04:22:37.075Z,90.45
2017-07-27T04:25:04.716Z,90.36
2017-07-27T04:27:32.341Z,89.67
2017-07-27T04:30:00.149Z,89.16
2017-07-27T04:32:27.836Z,89.43
2017-07-27T04:34:56.242Z,89.98
2017-07-27T04:37:23.870Z,90.51
2017-07-27T04:39:51.537Z,90.17
2017-07-27T04:42:19.159Z,90.40
2017-07-27T04:44:46.775Z,89.72
2017-07-27T04:47:14.468Z,90.15
2017-07-27T04:49:42.082Z,89.43
2017-07-27T04:52:09.691Z,88.54
2017-07-27T04:54:37.350Z,89.16
2017-07-27T04:57:16.665Z,87.83
2017-07-27T04:59:44.321Z,87.07
2017-07-27T05:02:11.965Z,86.49
2017-07-27T05:04:39.576Z,85.97
2017-07-27T05:07:07.261Z,85.74
2017-07-27T05:09:34.879Z,85.21
2017-07-27T05:12:02.497Z,84.63
2017-07-27T05:14:30.189Z,83.07
2017-07-27T05:16:57.815Z,82.60
2017-07-27T05:19:25.514Z,81.19
2017-07-27T05:21:53.192Z,80.67
2017-07-27T05:24:20.797Z,82.39
2017-07-27T05:26:48.416Z,79.80
2017-07-27T05:29:16.105Z,79.91
2017-07-27T05:31:43.722Z,80.22
2017-07-27T05:34:11.357Z,80.47
2017-07-27T05:36:39.013Z,79.00
2017-07-27T05:39:06.625Z,79.23
2017-07-27T05:41:34.256Z,79.26
2017-07-27T05:44:01.975Z,79.16
2017-07-27T05:46:29.604Z,80.06
2017-07-27T05:48:57.230Z,79.38
2017-07-27T05:51:24.941Z,79.63
2017-07-27T05:53:52.550Z,79.94
2017-07-27T05:56:20.323Z,81.19
2017-07-27T05:58:47.985Z,81.71
2017-07-27T06:01:15.601Z,82.69
2017-07-27T06:03:43.205Z,83.26
2017-07-27T06:06:10.875Z,84.11
2017-07-27T06:08:38.486Z,83.75
2017-07-27T06:11:06.110Z,84.67
2017-07-27T06:13:33.788Z,85.49
2017-07-27T06:16:01.415Z,85.75
2017-07-27T06:18:29.051Z,86.45
2017-07-27T06:20:56.759Z,85.68
2017-07-27T06:23:24.396Z,86.67
2017-07-27T06:25:52.020Z,86.47
2017-07-27T06:28:19.674Z,86.48
2017-07-27T06:30:47.374Z,87.37
2017-07-27T06:33:14.991Z,88.07
2017-07-27T06:35:42.675Z,87.08
2017-07-27T06:38:10.294Z,87.60
2017-07-27T06:40:37.908Z,87.95
2017-07-27T06:43:05.641Z,87.53
2017-07-27T06:45:33.267Z,87.30
2017-07-27T06:48:00.899Z,86.01
2017-07-27T06:50:28.559Z,87.01
2017-07-27T06:52:56.162Z,86.28
2017-07-27T06:55:23.779Z,86.27
2017-07-27T06:57:51.477Z,86.70
2017-07-27T07:00:19.114Z,85.85
2017-07-27T07:02:46.725Z,85.58
2017-07-27T07:05:14.411Z,85.62
2017-07-27T07:07:42.025Z,84.93
2017-07-27T07:10:09.649Z,84.03
2017-07-27T07:12:37.328Z,84.92
2017-07-27T07:15:04.956Z,85.57
2017-07-27T07:17:32.559Z,85.32
2017-07-27T07:20:00.247Z,85.30
2017-07-27T07:22:27.920Z,85.00
2017-07-27T07:24:55.539Z,85.73
2017-07-27T07:27:23.193Z,86.32
2017-07-27T07:29:50.817Z,86.44
2017-07-27T07:32:18.429Z,86.02
2017-07-27T07:34:46.112Z,87.03
2017-07-27T07:37:13.702Z,87.08
2017-07-27T07:39:41.314Z,87.22
2017-07-27T07:42:09.007Z,88.00
2017-07-27T07:44:36.636Z,88.70
2017-07-27T07:47:04.247Z,88.30
2017-07-27T07:49:31.923Z,87.83
2017-07-27T07:51:59.562Z,87.44
2017-07-27T07:54:27.172Z,86.72
2017-07-27T07:56:54.833Z,87.26
2017-07-27T07:59:22.497Z,89.15
2017-07-27T08:01:50.133Z,89.50
2017-07-27T08:04:17.805Z,89.66
2017-07-27T08:06:45.600Z,90.55
2017-07-27T08:09:25.125Z,89.36
2017-07-27T08:11:52.737Z,89.35
2017-07-27T08:14:20.363Z,89.31
2017-07-27T08:16:48.025Z,90.06
2017-07-27T08:19:15.644Z,89.90
2017-07-27T08:21:43.275Z,89.69
2017-07-27T08:24:11.011Z,89.78
2017-07-27T08:26:38.618Z,90.73
2017-07-27T08:29:06.224Z,91.25
2017-07-27T08:31:33.942Z,91.25
2017-07-27T08:34:01.542Z,90.76
2017-07-27T08:36:29.161Z,90.82
2017-07-27T08:38:56.839Z,90.62
2017-07-27T08:41:24.443Z,90.76
2017-07-27T08:43:52.065Z,88.70
2017-07-27T08:46:19.773Z,90.15
2017-07-27T08:48:47.375Z,91.15
2017-07-27T08:51:14.982Z,90.55
2017-07-27T08:53:42.654Z,90.07
2017-07-27T08:56:10.274Z,89.75
2017-07-27T08:58:37.873Z,89.16
2017-07-27T09:01:05.547Z,88.19
2017-07-27T09:03:33.171Z,88.95
2017-07-27T09:06:00.808Z,88.82
2017-07-27T09:08:28.505Z,89.51
2017-07-27T09:10:56.135Z,88.88
2017-07-27T09:13:23.741Z,87.84
2017-07-27T09:15:51.437Z,87.51
2017-07-27T09:18:19.061Z,87.57
2017-07-27T09:20:46.728Z,87.64
2017-07-27T09:23:14.411Z,87.67
2017-07-27T09:25:42.039Z,87.72
2017-07-27T09:28:09.731Z,87.81
2017-07-27T09:30:37.405Z,87.41
2017-07-27T09:33:05.024Z,87.20
2017-07-27T09:35:32.663Z,86.99
2017-07-27T09:38:00.337Z,85.22
2017-07-27T09:40:27.995Z,85.10
2017-07-27T09:42:55.622Z,85.83
2017-07-27T09:45:23.285Z,86.11
2017-07-27T09:47:50.921Z,86.14
2017-07-27T09:50:18.526Z,86.23
2017-07-27T09:52:46.199Z,85.53
2017-07-27T09:55:13.828Z,85.67
2017-07-27T09:57:46.832Z,85.38
2017-07-27T10:00:14.468Z,85.51
2017-07-27T10:02:42.093Z,85.22
2017-07-27T10:05:09.967Z,85.80
2017-07-27T10:07:37.628Z,84.07
2017-07-27T10:10:05.470Z,83.98
2017-07-27T10:12:33.285Z,84.94
2017-07-27T10:15:00.949Z,85.05
2017-07-27T10:17:28.563Z,84.87
2017-07-27T10:19:56.480Z,84.33
2017-07-27T10:22:24.416Z,84.02
2017-07-27T10:24:52.082Z,83.12
2017-07-27T10:27:19.740Z,84.27
2017-07-27T10:29:47.573Z,83.71
2017-07-27T10:32:15.319Z,83.95
2017-07-27T10:34:43.312Z,83.10
2017-07-27T10:37:11.013Z,83.13
2017-07-27T10:39:38.614Z,83.59
2017-07-27T10:42:06.279Z,84.02
2017-07-27T10:44:33.900Z,82.13
2017-07-27T10:47:01.541Z,84.41
2017-07-27T10:49:29.210Z,85.15
2017-07-27T10:51:56.819Z,85.76
2017-07-27T10:54:24.423Z,86.49
2017-07-27T10:56:52.104Z,86.48
2017-07-27T10:59:19.714Z,87.01
2017-07-27T11:01:47.323Z,86.85
2017-07-27T11:04:14.984Z,86.97
2017-07-27T11:06:42.747Z,87.69
2017-07-27T11:09:10.369Z,87.88
2017-07-27T11:11:38.067Z,88.03
2017-07-27T11:14:05.780Z,88.30
2017-07-27T11:16:33.598Z,89.28
2017-07-27T11:19:01.497Z,88.40
2017-07-27T11:21:29.230Z,88.68
2017-07-27T11:23:57.177Z,89.30
2017-07-27T11:26:24.915Z,88.62
2017-07-27T11:28:52.734Z,89.44
2017-07-27T11:31:20.398Z,88.89
2017-07-27T11:33:48.441Z,88.96
2017-07-27T11:36:16.331Z,90.19
2017-07-27T11:38:44.052Z,88.44
2017-07-27T11:41:11.859Z,90.19
2017-07-27T11:43:39.583Z,90.19
2017-07-27T11:46:07.191Z,90.12
2017-07-27T11:48:35.357Z,89.85
2017-07-27T11:51:03.330Z,88.81
2017-07-27T11:53:30.991Z,86.93
2017-07-27T11:55:59.064Z,85.96
2017-07-27T11:58:26.720Z,85.98
2017-07-27T12:00:54.731Z,85.65
2017-07-27T12:03:22.620Z,86.64
2017-07-27T12:05:50.252Z,86.35
2017-07-27T12:08:18.137Z,85.81
2017-07-27T12:10:46.122Z,84.92
2017-07-27T12:13:13.914Z,85.20
2017-07-27T12:15:41.527Z,85.93
2017-07-27T12:18:09.213Z,85.16
2017-07-27T12:20:36.817Z,85.70
2017-07-27T12:23:04.790Z,86.15
2017-07-27T12:25:32.479Z,85.02
2017-07-27T12:28:00.102Z,84.87
2017-07-27T12:30:27.831Z,85.05
2017-07-27T12:32:55.518Z,85.65
2017-07-27T12:35:23.469Z,85.74
2017-07-27T12:37:51.369Z,86.10
2017-07-27T12:40:19.424Z,85.94
2017-07-27T12:42:47.144Z,85.11
2017-07-27T12:45:14.964Z,84.60
2017-07-27T12:47:42.836Z,83.69
2017-07-27T12:50:10.499Z,83.84
2017-07-27T12:52:38.162Z,82.70
2017-07-27T12:55:05.827Z,82.67
2017-07-27T12:57:33.417Z,81.46
2017-07-27T13:00:01.143Z,80.73
2017-07-27T13:02:28.799Z,79.93
2017-07-27T13:04:56.654Z,78.53
2017-07-27T13:07:24.332Z,78.69
2017-07-27T13:09:52.412Z,78.31
2017-07-27T13:12:20.061Z,78.91
2017-07-27T13:14:47.733Z,78.76
2017-07-27T13:17:15.654Z,78.24
2017-07-27T13:19:43.670Z,80.09
2017-07-27T13:22:11.390Z,79.17
2017-07-27T13:24:39.022Z,77.98
2017-07-27T13:27:06.777Z,77.23
2017-07-27T13:29:34.374Z,75.91
2017-07-27T13:32:02.036Z,75.54
2017-07-27T13:34:29.640Z,75.16
2017-07-27T13:36:57.304Z,73.89
2017-07-27T13:39:25.379Z,75.57
2017-07-27T13:41:53.231Z,73.16
2017-07-27T13:44:20.904Z,72.54
2017-07-27T13:46:48.935Z,72.42
2017-07-27T13:49:16.643Z,70.78
2017-07-27T13:51:44.245Z,70.43
2017-07-27T13:54:11.965Z,70.74
2017-07-27T13:56:39.626Z,71.79
2017-07-27T13:59:07.350Z,71.81
2017-07-27T14:01:34.990Z,70.94
2017-07-27T14:04:02.598Z,70.64
2017-07-27T14:06:30.275Z,70.86
2017-07-27T14:08:58.119Z,71.51
2017-07-27T14:11:25.955Z,71.33
2017-07-27T14:13:53.546Z,71.12
2017-07-27T14:16:21.200Z,70.98
2017-07-27T14:18:48.836Z,72.83
2017-07-27T14:21:16.473Z,71.64
2017-07-27T14:23:44.168Z,71.08
2017-07-27T14:26:11.847Z,69.81
2017-07-27T14:28:39.454Z,70.80
2017-07-27T14:31:07.071Z,69.49
2017-07-27T14:33:34.731Z,69.70
2017-07-27T14:36:02.356Z,70.80
2017-07-27T14:38:31.449Z,70.85
2017-07-27T14:40:59.139Z,71.71
2017-07-27T14:43:26.743Z,72.51
2017-07-27T14:45:55.039Z,73.10
2017-07-27T14:48:23.467Z,73.74
2017-07-27T14:50:51.941Z,74.35
2017-07-27T14:53:19.578Z,75.13
2017-07-27T14:55:47.277Z,75.85
2017-07-27T14:58:14.885Z,75.54
2017-07-27T15:00:42.492Z,74.37
2017-07-27T15:03:10.154Z,74.22
2017-07-27T15:05:37.884Z,73.98
2017-07-27T15:08:06.238Z,75.41
2017-07-27T15:10:33.993Z,74.40
2017-07-27T15:13:01.759Z,74.11
2017-07-27T15:15:29.382Z,73.78
2017-07-27T15:17:57.113Z,73.52
2017-07-27T15:20:24.712Z,73.39
2017-07-27T15:22:52.304Z,73.44
2017-07-27T15:25:19.966Z,73.83
2017-07-27T15:27:47.557Z,74.03
2017-07-27T15:30:15.159Z,74.22
2017-07-27T15:32:42.922Z,74.28
2017-07-27T15:35:10.667Z,75.05
2017-07-27T15:37:38.291Z,75.02
2017-07-27T15:40:05.955Z,77.10
2017-07-27T15:42:33.604Z,76.12
2017-07-27T15:45:01.275Z,76.60
2017-07-27T15:47:28.923Z,76.85
2017-07-27T15:49:56.528Z,76.15
2017-07-27T15:52:24.154Z,78.11
2017-07-27T15:54:51.860Z,80.30
2017-07-27T15:57:19.475Z,80.04
2017-07-27T15:59:47.118Z,76.36
2017-07-27T16:02:14.804Z,77.56
2017-07-27T16:04:42.413Z,76.78
2017-07-27T16:07:10.037Z,77.40
2017-07-27T16:09:37.736Z,78.84
2017-07-27T16:12:05.511Z,80.54
2017-07-27T16:14:33.133Z,82.39
2017-07-27T16:17:00.876Z,81.69
2017-07-27T16:19:28.490Z,81.58
2017-07-27T16:21:56.096Z,82.47
2017-07-27T16:24:23.815Z,82.09
2017-07-27T16:26:51.422Z,82.01
2017-07-27T16:29:19.082Z,81.33
2017-07-27T16:31:47.151Z,81.39
2017-07-27T16:34:14.817Z,81.45
2017-07-27T16:36:42.681Z,81.08
2017-07-27T16:39:10.556Z,80.00
2017-07-27T16:41:38.159Z,80.56
2017-07-27T16:44:05.864Z,79.99
2017-07-27T16:46:33.773Z,80.98
2017-07-27T16:49:01.403Z,79.99
2017-07-27T16:51:29.249Z,79.74
2017-07-27T16:53:57.135Z,80.30
2017-07-27T16:56:24.854Z,80.72
2017-07-27T16:58:52.865Z,81.27
2017-07-27T17:01:20.643Z,80.34
2017-07-27T17:03:48.502Z,80.59
2017-07-27T17:06:16.481Z,81.12
2017-07-27T17:08:44.462Z,81.88
2017-07-27T17:11:12.057Z,82.96
2017-07-27T17:13:40.075Z,82.91
2017-07-27T17:16:07.942Z,82.58
2017-07-27T17:18:35.596Z,83.66
2017-07-27T17:21:03.262Z,83.52
2017-07-27T17:23:31.114Z,83.69
2017-07-27T17:25:58.791Z,84.41
2017-07-27T17:28:26.451Z,85.15
2017-07-27T17:30:54.343Z,84.96
2017-07-27T17:33:22.087Z,85.94
2017-07-27T17:35:50.026Z,85.44
2017-07-27T17:38:17.924Z,85.71
2017-07-27T17:40:45.762Z,85.59
2017-07-27T17:43:13.455Z,86.63
2017-07-27T17:45:41.492Z,87.47
2017-07-27T17:48:09.192Z,88.51
2017-07-27T17:50:36.850Z,88.13
2017-07-27T17:53:04.569Z,88.16
2017-07-27T17:55:32.290Z,88.22
2017-07-27T17:57:59.901Z,89.14
2017-07-27T18:00:27.749Z,88.89
2017-07-27T18:02:55.566Z,89.06
2017-07-27T18:05:23.213Z,89.14
2017-07-27T18:07:51.096Z,89.23
2017-07-27T18:10:18.753Z,89.28
2017-07-27T18:12:46.483Z,89.44
2017-07-27T18:15:14.192Z,90.13
2017-07-27T18:17:41.918Z,90.11
2017-07-27T18:20:09.812Z,90.07
2017-07-27T18:22:37.476Z,89.74
2017-07-27T18:25:05.115Z,90.03
2017-07-27T18:27:32.801Z,90.04
2017-07-27T18:30:00.824Z,88.54
2017-07-27T18:32:28.545Z,89.51
2017-07-27T18:34:56.395Z,89.25
2017-07-27T18:37:24.075Z,89.65
2017-07-27T18:39:51.935Z,90.35
2017-07-27T18:42:19.983Z,90.47
2017-07-27T18:44:47.932Z,90.49
2017-07-27T18:47:15.735Z,90.76
2017-07-27T18:49:43.506Z,90.82
2017-07-27T18:52:11.226Z,90.93
2017-07-27T18:54:39.200Z,91.11
2017-07-27T18:57:06.861Z,91.12
2017-07-27T18:59:34.640Z,90.54
2017-07-27T19:02:02.255Z,90.42
2017-07-27T19:04:29.872Z,90.53
2017-07-27T19:06:57.529Z,90.53
2017-07-27T19:09:25.156Z,89.59
2017-07-27T19:11:52.776Z,89.43
2017-07-27T19:14:20.784Z,88.70
2017-07-27T19:16:48.709Z,88.97
2017-07-27T19:19:16.305Z,89.63
2017-07-27T19:21:44.038Z,88.39
2017-07-27T19:24:11.692Z,88.77
2017-07-27T19:26:39.420Z,88.60
2017-07-27T19:29:07.235Z,88.59
2017-07-27T19:31:34.887Z,88.69
2017-07-27T19:34:02.556Z,87.80
2017-07-27T19:36:30.559Z,88.82
2017-07-27T19:38:58.282Z,88.13
2017-07-27T19:41:26.119Z,87.88
2017-07-27T19:43:53.756Z,88.44
2017-07-27T19:46:21.603Z,88.94
2017-07-27T19:48:49.341Z,88.95
2017-07-27T19:51:16.987Z,89.14
2017-07-27T19:53:44.587Z,89.77
2017-07-27T19:56:12.191Z,89.50
2017-07-27T19:58:39.845Z,89.55
2017-07-27T20:01:07.653Z,90.01
2017-07-27T20:03:35.375Z,90.20
2017-07-27T20:06:03.056Z,90.19
2017-07-27T20:08:31.047Z,89.72
2017-07-27T20:10:58.912Z,90.12
2017-07-27T20:13:26.982Z,89.87
2017-07-27T20:15:54.840Z,89.14
2017-07-27T20:18:22.575Z,89.11
2017-07-27T20:20:50.589Z,89.65
2017-07-27T20:23:18.252Z,89.68
2017-07-27T20:25:45.976Z,89.87
2017-07-27T20:28:13.779Z,89.52
2017-07-27T20:30:41.444Z,90.16
2017-07-27T20:33:09.098Z,89.52
2017-07-27T20:35:36.988Z,89.83
2017-07-27T20:38:04.659Z,89.81
2017-07-27T20:40:32.358Z,89.82
2017-07-27T20:43:00.140Z,89.78
2017-07-27T20:45:27.823Z,90.25
2017-07-27T20:47:55.443Z,90.20
2017-07-27T20:50:23.112Z,90.46
2017-07-27T20:52:50.720Z,90.70
2017-07-27T20:55:18.662Z,90.69
2017-07-27T20:57:46.647Z,90.94
2017-07-27T21:00:14.267Z,90.15
2017-07-27T21:02:41.891Z,90.97
2017-07-27T21:05:09.583Z,91.09
2017-07-27T21:07:37.196Z,90.97
2017-07-27T21:12:37.586Z,90.30
2017-07-27T21:15:05.200Z,89.60
2017-07-27T21:17:32.823Z,88.97
2017-07-27T21:20:00.490Z,89.55
2017-07-27T21:22:28.106Z,90.50
2017-07-27T21:24:56.373Z,89.03
2017-07-27T21:27:24.136Z,90.39
2017-07-27T21:29:51.747Z,89.62
2017-07-27T21:32:19.584Z,89.70
2017-07-27T21:34:47.400Z,90.21
2017-07-27T21:37:15.028Z,88.27
2017-07-27T21:39:42.662Z,87.45
2017-07-27T21:42:10.342Z,87.81
2017-07-27T21:44:37.950Z,87.94
2017-07-27T21:47:05.914Z,80.52
2017-07-27T21:49:33.587Z,87.29
2017-07-27T21:52:01.425Z,88.20
2017-07-27T21:54:29.187Z,84.48
2017-07-27T21:56:57.182Z,83.45
2017-07-27T21:59:24.928Z,79.88
2017-07-27T22:01:52.933Z,80.43
2017-07-27T22:04:20.783Z,79.92
2017-07-27T22:06:48.372Z,81.96
2017-07-27T22:09:16.110Z,77.66
2017-07-27T22:11:43.886Z,77.32
2017-07-27T22:14:11.510Z,75.56
2017-07-27T22:16:39.100Z,77.22
2017-07-27T22:19:06.762Z,75.93
2017-07-27T22:21:34.605Z,73.76
2017-07-27T22:24:02.295Z,73.77
2017-07-27T22:26:29.929Z,75.80
2017-07-27T22:28:57.806Z,74.06
2017-07-27T22:31:25.673Z,73.75
2017-07-27T22:33:53.414Z,74.50
2017-07-27T22:36:21.405Z,75.23
2017-07-27T22:38:49.148Z,75.45
2017-07-27T22:41:17.115Z,73.27
2017-07-27T22:43:45.028Z,73.38
2017-07-27T22:46:12.743Z,74.68
2017-07-27T22:48:40.737Z,75.50
2017-07-27T22:51:08.607Z,75.38
2017-07-27T22:53:36.487Z,72.04
2017-07-27T22:56:04.542Z,74.69
2017-07-27T22:58:32.144Z,74.43
2017-07-27T23:01:00.026Z,73.12
2017-07-27T23:03:27.957Z,74.18
2017-07-27T23:05:55.621Z,72.71
2017-07-27T23:08:23.399Z,74.20
2017-07-27T23:10:51.357Z,72.64
2017-07-27T23:13:18.974Z,71.01
2017-07-27T23:15:46.889Z,71.51
2017-07-27T23:18:14.925Z,71.45
2017-07-27T23:20:42.621Z,71.31
2017-07-27T23:23:10.279Z,70.05
2017-07-27T23:25:38.384Z,72.50
2017-07-27T23:28:06.209Z,71.59
2017-07-27T23:30:33.930Z,72.12
2017-07-27T23:33:01.926Z,69.79
2017-07-27T23:35:29.686Z,71.01
2017-07-27T23:37:57.657Z,70.46
2017-07-27T23:40:25.473Z,69.89
2017-07-27T23:42:53.419Z,70.71
2017-07-27T23:45:21.154Z,69.85
2017-07-27T23:47:49.124Z,68.63
2017-07-27T23:50:16.814Z,70.14
2017-07-27T23:52:44.463Z,69.60
2017-07-27T23:55:12.554Z,69.83
2017-07-27T23:57:40.216Z,70.08
